createdAt,value
2018-08-31T00:00:59.816Z,100957.75
2018-08-31T00:05:54.511Z,100952.95
2018-08-31T00:10:42.771Z,100960.47
2018-08-31T00:13:10.625Z,100963.98
2018-08-31T00:15:38.415Z,100958.97
2018-08-31T00:18:06.362Z,100961.37
2018-08-31T00:20:34.158Z,100964.62
2018-08-31T00:23:01.926Z,100958.05
2018-08-31T00:26:14.023Z,100951.07
2018-08-31T00:29:47.115Z,100959.32
2018-08-31T00:34:34.521Z,100960.16
2018-08-31T00:41:30.354Z,100962.27
2018-08-31T00:44:22.823Z,100962.19
2018-08-31T00:46:50.705Z,100970.38
2018-08-31T00:49:18.504Z,100968.67
2018-08-31T00:51:46.384Z,100961.58
2018-08-31T00:54:14.193Z,100959.48
2018-08-31T00:56:41.993Z,100961.27
2018-08-31T00:59:09.870Z,100961.65
2018-08-31T01:01:37.683Z,100958.77
2018-08-31T01:04:05.623Z,100963.33
2018-08-31T01:06:33.367Z,100958.70
2018-08-31T01:09:01.163Z,100955.19
2018-08-31T01:11:28.960Z,100947.16
2018-08-31T01:13:56.795Z,100951.53
2018-08-31T01:16:24.715Z,100953.13
2018-08-31T01:18:52.584Z,100958.66
2018-08-31T01:21:20.418Z,100953.03
2018-08-31T01:23:48.167Z,100949.48
2018-08-31T01:26:16.028Z,100950.57
2018-08-31T01:28:43.817Z,100950.86
2018-08-31T01:31:11.631Z,100948.91
2018-08-31T01:33:39.415Z,100945.87
2018-08-31T01:36:07.190Z,100942.52
2018-08-31T01:38:35.031Z,100938.45
2018-08-31T01:41:02.861Z,100932.83
2018-08-31T01:43:30.659Z,100929.28
2018-08-31T01:45:58.385Z,100927.26
2018-08-31T01:48:26.195Z,100925.41
2018-08-31T01:50:59.784Z,100924.03
2018-08-31T01:53:28.565Z,100923.39
2018-08-31T01:55:56.431Z,100928.37
2018-08-31T01:58:24.213Z,100922.30
2018-08-31T02:00:52.003Z,100925.34
2018-08-31T02:03:19.766Z,100915.40
2018-08-31T02:05:47.553Z,100924.22
2018-08-31T02:08:15.357Z,100919.42
2018-08-31T02:10:43.187Z,100927.95
2018-08-31T02:13:10.995Z,100932.80
2018-08-31T02:15:38.780Z,100925.70
2018-08-31T02:18:06.639Z,100935.61
2018-08-31T02:20:34.463Z,100936.92
2018-08-31T02:23:02.326Z,100935.55
2018-08-31T02:25:30.116Z,100936.16
2018-08-31T02:27:57.928Z,100931.97
2018-08-31T02:30:25.780Z,100931.36
2018-08-31T02:32:53.656Z,100934.00
2018-08-31T02:35:21.424Z,100932.15
2018-08-31T02:37:49.215Z,100934.89
2018-08-31T02:40:16.983Z,100933.59
2018-08-31T02:42:44.783Z,100925.61
2018-08-31T02:45:12.608Z,100928.24
2018-08-31T02:47:40.396Z,100920.77
2018-08-31T02:50:08.263Z,100919.64
2018-08-31T02:52:36.073Z,100914.66
2018-08-31T02:55:03.950Z,100916.53
2018-08-31T02:57:31.785Z,100915.05
2018-08-31T02:59:59.648Z,100907.17
2018-08-31T03:02:27.440Z,100911.04
2018-08-31T03:04:55.296Z,100908.69
2018-08-31T03:07:23.144Z,100912.84
2018-08-31T03:09:50.963Z,100909.77
2018-08-31T03:12:18.964Z,100907.98
2018-08-31T03:14:46.716Z,100905.13
2018-08-31T03:17:14.608Z,100906.08
2018-08-31T03:19:42.483Z,100902.09
2018-08-31T03:22:10.294Z,100904.55
2018-08-31T03:24:38.067Z,100906.30
2018-08-31T03:27:05.874Z,100898.94
2018-08-31T03:29:33.670Z,100901.40
2018-08-31T03:32:01.463Z,100905.06
2018-08-31T03:34:29.200Z,100897.95
2018-08-31T03:36:56.974Z,100900.49
2018-08-31T03:39:24.763Z,100900.86
2018-08-31T03:41:52.637Z,100904.56
2018-08-31T03:44:20.412Z,100906.56
2018-08-31T03:46:48.182Z,100910.05
2018-08-31T03:49:15.927Z,100911.97
2018-08-31T03:51:43.829Z,100905.89
2018-08-31T03:54:11.610Z,100907.69
2018-08-31T03:56:39.585Z,100904.98
2018-08-31T03:59:07.740Z,100901.83
2018-08-31T04:01:35.551Z,100907.73
2018-08-31T04:04:03.436Z,100912.93
2018-08-31T04:06:31.257Z,100910.77
2018-08-31T04:08:59.127Z,100919.00
2018-08-31T04:11:26.948Z,100911.84
2018-08-31T04:13:54.755Z,100919.08
2018-08-31T04:16:22.521Z,100922.91
2018-08-31T04:18:50.332Z,100928.97
2018-08-31T04:21:18.095Z,100931.64
2018-08-31T04:23:45.959Z,100933.76
2018-08-31T04:26:13.791Z,100935.13
2018-08-31T04:28:41.579Z,100933.02
2018-08-31T04:31:09.334Z,100931.72
2018-08-31T04:33:37.155Z,100935.55
2018-08-31T04:36:04.907Z,100937.63
2018-08-31T04:38:32.638Z,100935.92
2018-08-31T04:41:00.488Z,100936.75
2018-08-31T04:43:28.196Z,100934.22
2018-08-31T04:45:55.995Z,100942.91
2018-08-31T04:48:26.067Z,100944.73
2018-08-31T04:50:58.924Z,100945.69
2018-08-31T04:53:27.055Z,100948.06
2018-08-31T04:55:54.887Z,100947.77
2018-08-31T04:58:22.717Z,100947.31
2018-08-31T05:00:50.506Z,100941.03
2018-08-31T05:03:18.363Z,100943.66
2018-08-31T05:05:46.211Z,100947.60
2018-08-31T05:08:14.098Z,100938.66
2018-08-31T05:10:41.978Z,100940.95
2018-08-31T05:13:09.919Z,100937.87
2018-08-31T05:15:37.820Z,100934.91
2018-08-31T05:18:05.712Z,100933.25
2018-08-31T05:20:33.523Z,100939.41
2018-08-31T05:23:02.380Z,100938.66
2018-08-31T05:25:30.135Z,100935.77
2018-08-31T05:27:57.955Z,100941.92
2018-08-31T05:30:25.852Z,100941.75
2018-08-31T05:32:53.617Z,100937.23
2018-08-31T05:35:21.424Z,100940.39
2018-08-31T05:37:49.375Z,100937.72
2018-08-31T05:40:17.235Z,100942.45
2018-08-31T05:42:45.099Z,100943.61
2018-08-31T05:45:13.317Z,100936.30
2018-08-31T05:47:41.155Z,100937.28
2018-08-31T05:50:08.992Z,100936.77
2018-08-31T05:52:36.758Z,100944.94
2018-08-31T05:55:04.735Z,100941.50
2018-08-31T05:57:32.841Z,100954.83
2018-08-31T06:00:00.796Z,100954.42
2018-08-31T06:02:28.720Z,100958.20
2018-08-31T06:04:56.703Z,100962.42
2018-08-31T06:07:24.551Z,100962.30
2018-08-31T06:09:52.322Z,100963.54
2018-08-31T06:12:20.291Z,100971.34
2018-08-31T06:14:48.183Z,100963.20
2018-08-31T06:17:16.026Z,100964.80
2018-08-31T06:19:43.832Z,100961.38
2018-08-31T06:22:11.751Z,100966.20
2018-08-31T06:24:39.620Z,100967.77
2018-08-31T06:27:07.398Z,100967.61
2018-08-31T06:29:35.243Z,100969.91
2018-08-31T06:32:03.113Z,100974.70
2018-08-31T06:34:30.934Z,100968.25
2018-08-31T06:36:58.711Z,100975.55
2018-08-31T06:39:26.494Z,100966.23
2018-08-31T06:41:54.266Z,100975.49
2018-08-31T06:44:22.091Z,100979.19
2018-08-31T06:46:50.008Z,100977.66
2018-08-31T06:49:17.994Z,100975.05
2018-08-31T06:51:45.800Z,100979.55
2018-08-31T06:54:13.588Z,100976.17
2018-08-31T06:56:41.355Z,100965.27
2018-08-31T06:59:09.215Z,100970.31
2018-08-31T07:01:37.024Z,100969.25
2018-08-31T07:04:04.792Z,100969.63
2018-08-31T07:06:32.602Z,100970.25
2018-08-31T07:09:00.399Z,100971.67
2018-08-31T07:11:28.154Z,100972.78
2018-08-31T07:13:56.003Z,100979.18
2018-08-31T07:16:23.783Z,100979.23
2018-08-31T07:18:51.659Z,100968.77
2018-08-31T07:21:19.515Z,100972.69
2018-08-31T07:23:47.364Z,100969.42
2018-08-31T07:26:15.193Z,100967.87
2018-08-31T07:28:42.939Z,100975.36
2018-08-31T07:31:10.696Z,100973.73
2018-08-31T07:33:38.472Z,100980.16
2018-08-31T07:36:06.289Z,100973.86
2018-08-31T07:38:34.044Z,100982.47
2018-08-31T07:41:01.855Z,100979.45
2018-08-31T07:43:29.660Z,100978.66
2018-08-31T07:45:57.450Z,100981.17
2018-08-31T07:48:25.168Z,100974.30
2018-08-31T07:50:52.958Z,100975.98
2018-08-31T07:53:20.753Z,100970.99
2018-08-31T07:55:48.535Z,100968.23
2018-08-31T07:58:16.386Z,100966.03
2018-08-31T08:00:44.215Z,100958.27
2018-08-31T08:03:11.963Z,100968.25
2018-08-31T08:05:39.828Z,100962.41
2018-08-31T08:08:07.551Z,100963.53
2018-08-31T08:10:35.319Z,100964.62
2018-08-31T08:13:03.108Z,100973.22
2018-08-31T08:15:30.952Z,100972.07
2018-08-31T08:17:58.780Z,100975.13
2018-08-31T08:20:26.494Z,100978.98
2018-08-31T08:22:54.343Z,100972.91
2018-08-31T08:25:22.123Z,100973.43
2018-08-31T08:27:49.936Z,100978.94
2018-08-31T08:30:17.736Z,100974.42
2018-08-31T08:32:45.515Z,100979.20
2018-08-31T08:35:13.371Z,100969.11
2018-08-31T08:37:41.470Z,100974.36
2018-08-31T08:40:09.425Z,100974.23
2018-08-31T08:42:37.323Z,100971.70
2018-08-31T08:45:05.569Z,100978.85
2018-08-31T08:47:33.352Z,100975.37
2018-08-31T08:50:01.200Z,100989.19
2018-08-31T08:52:28.987Z,100986.64
2018-08-31T08:54:57.638Z,100980.92
2018-08-31T08:57:25.485Z,100976.91
2018-08-31T08:59:53.249Z,100974.08
2018-08-31T09:02:21.110Z,100975.34
2018-08-31T09:04:48.906Z,100968.38
2018-08-31T09:07:17.511Z,100963.63
2018-08-31T09:09:46.383Z,100969.98
2018-08-31T09:12:14.310Z,100972.67
2018-08-31T09:14:42.068Z,100976.63
2018-08-31T09:17:09.879Z,100981.56
2018-08-31T09:19:37.967Z,100977.27
2018-08-31T09:22:05.862Z,100977.56
2018-08-31T09:24:33.652Z,100968.19
2018-08-31T09:27:01.479Z,100968.64
2018-08-31T09:29:29.252Z,100980.34
2018-08-31T09:31:57.064Z,100970.84
2018-08-31T09:34:24.908Z,100969.70
2018-08-31T09:36:52.728Z,100969.05
2018-08-31T09:39:20.560Z,100972.97
2018-08-31T09:41:48.390Z,100971.33
2018-08-31T09:44:16.174Z,100962.52
2018-08-31T09:46:43.959Z,100961.59
2018-08-31T09:49:11.816Z,100956.27
2018-08-31T09:51:39.601Z,100961.73
2018-08-31T09:54:07.352Z,100957.54
2018-08-31T09:56:35.119Z,100963.23
2018-08-31T09:59:02.970Z,100955.44
2018-08-31T10:01:32.807Z,100954.70
2018-08-31T10:04:01.491Z,100948.33
2018-08-31T10:06:30.548Z,100949.83
2018-08-31T10:08:58.418Z,100957.49
2018-08-31T10:11:26.251Z,100956.25
2018-08-31T10:13:54.039Z,100961.17
2018-08-31T10:16:21.855Z,100955.59
2018-08-31T10:18:49.693Z,100950.61
2018-08-31T10:21:17.399Z,100942.22
2018-08-31T10:23:45.175Z,100941.40
2018-08-31T10:26:12.991Z,100947.04
2018-08-31T10:28:40.779Z,100931.88
2018-08-31T10:31:08.607Z,100933.69
2018-08-31T10:33:36.468Z,100933.46
2018-08-31T10:36:04.843Z,100940.12
2018-08-31T10:38:32.633Z,100938.72
2018-08-31T10:41:00.507Z,100932.78
2018-08-31T10:43:28.399Z,100941.90
2018-08-31T10:45:56.186Z,100929.12
2018-08-31T10:48:24.272Z,100926.33
2018-08-31T10:50:52.108Z,100920.75
2018-08-31T10:53:19.969Z,100919.02
2018-08-31T10:55:47.752Z,100926.55
2018-08-31T10:58:15.563Z,100931.53
2018-08-31T11:00:43.412Z,100926.50
2018-08-31T11:03:11.287Z,100921.06
2018-08-31T11:05:39.287Z,100917.27
2018-08-31T11:08:07.140Z,100922.67
2018-08-31T11:10:34.963Z,100911.30
2018-08-31T11:13:02.825Z,100909.35
2018-08-31T11:15:30.671Z,100904.61
2018-08-31T11:17:58.495Z,100901.19
2018-08-31T11:20:26.320Z,100900.23
2018-08-31T11:22:54.082Z,100897.65
2018-08-31T11:25:22.638Z,100888.05
2018-08-31T11:27:50.543Z,100892.86
2018-08-31T11:30:18.339Z,100895.60
2018-08-31T11:32:46.184Z,100893.00
2018-08-31T11:35:14.671Z,100884.60
2018-08-31T11:37:42.694Z,100892.28
2018-08-31T11:40:10.663Z,100887.11
2018-08-31T11:42:38.439Z,100888.00
2018-08-31T11:45:06.596Z,100888.19
2018-08-31T11:47:34.366Z,100881.17
2018-08-31T11:50:02.239Z,100886.55
2018-08-31T11:52:30.110Z,100889.30
2018-08-31T11:54:57.947Z,100884.72
2018-08-31T11:57:30.105Z,100887.50
2018-08-31T11:59:57.962Z,100877.75
2018-08-31T12:02:25.729Z,100870.64
2018-08-31T12:04:54.602Z,100877.25
2018-08-31T12:07:23.382Z,100883.77
2018-08-31T12:09:51.310Z,100882.84
2018-08-31T12:12:19.136Z,100883.84
2018-08-31T12:14:46.995Z,100879.66
2018-08-31T12:17:14.787Z,100871.83
2018-08-31T12:19:42.777Z,100876.42
2018-08-31T12:22:10.662Z,100869.84
2018-08-31T12:24:47.279Z,100877.05
2018-08-31T12:27:24.849Z,100877.41
2018-08-31T12:29:56.419Z,100873.95
2018-08-31T12:32:26.351Z,100872.80
2018-08-31T12:34:54.243Z,100868.91
2018-08-31T12:37:22.036Z,100869.98
2018-08-31T12:39:56.342Z,100872.90
2018-08-31T12:42:29.818Z,100878.89
2018-08-31T12:44:58.087Z,100877.72
2018-08-31T12:47:25.887Z,100875.05
2018-08-31T12:49:54.331Z,100870.40
2018-08-31T12:52:24.963Z,100861.88
2018-08-31T12:54:52.807Z,100866.13
2018-08-31T12:57:20.641Z,100867.34
2018-08-31T12:59:54.108Z,100864.91
2018-08-31T13:02:21.959Z,100862.64
2018-08-31T13:04:49.818Z,100855.99
2018-08-31T13:07:17.536Z,100857.39
2018-08-31T13:09:45.423Z,100856.46
2018-08-31T13:12:13.303Z,100855.86
2018-08-31T13:14:43.926Z,100848.48
2018-08-31T13:17:11.825Z,100841.54
2018-08-31T13:19:39.622Z,100845.89
2018-08-31T13:22:07.515Z,100848.47
2018-08-31T13:24:35.407Z,100849.08
2018-08-31T13:27:03.535Z,100846.19
2018-08-31T13:29:32.116Z,100846.62
2018-08-31T13:31:59.867Z,100847.57
2018-08-31T13:34:28.245Z,100852.82
2018-08-31T13:36:56.015Z,100848.81
2018-08-31T13:39:26.029Z,100846.66
2018-08-31T13:41:53.876Z,100852.20
2018-08-31T13:44:21.720Z,100858.67
2018-08-31T13:46:50.671Z,100853.23
2018-08-31T13:49:18.423Z,100842.56
2018-08-31T13:51:46.488Z,100846.60
2018-08-31T13:54:14.233Z,100848.31
2018-08-31T13:56:42.108Z,100844.20
2018-08-31T13:59:09.879Z,100843.08
2018-08-31T14:01:37.741Z,100841.50
2018-08-31T14:04:05.868Z,100843.08
2018-08-31T14:06:33.752Z,100834.53
2018-08-31T14:09:01.601Z,100839.06
2018-08-31T14:11:29.400Z,100842.97
2018-08-31T14:13:57.622Z,100847.52
2018-08-31T14:16:25.831Z,100842.74
2018-08-31T14:18:53.650Z,100846.87
2018-08-31T14:21:21.448Z,100843.16
2018-08-31T14:23:49.267Z,100850.59
2018-08-31T14:26:17.067Z,100852.56
2018-08-31T14:28:44.986Z,100853.01
2018-08-31T14:31:12.788Z,100855.94
2018-08-31T14:33:40.571Z,100853.86
2018-08-31T14:36:08.480Z,100855.95
2018-08-31T14:38:36.211Z,100843.25
2018-08-31T14:41:03.955Z,100842.84
2018-08-31T14:43:37.607Z,100841.91
2018-08-31T14:46:05.412Z,100846.80
2018-08-31T14:48:33.183Z,100847.00
2018-08-31T14:51:01.038Z,100835.38
2018-08-31T14:53:34.857Z,100844.06
2018-08-31T14:56:02.703Z,100840.77
2018-08-31T14:58:30.523Z,100834.13
2018-08-31T15:00:58.239Z,100825.01
2018-08-31T15:03:29.894Z,100832.26
2018-08-31T15:05:58.258Z,100829.13
2018-08-31T15:08:25.911Z,100824.05
2018-08-31T15:10:53.719Z,100820.86
2018-08-31T15:13:21.502Z,100817.88
2018-08-31T15:15:49.312Z,100818.77
2018-08-31T15:18:17.130Z,100827.22
2018-08-31T15:20:44.987Z,100826.80
2018-08-31T15:23:12.844Z,100826.82
2018-08-31T15:25:40.753Z,100824.84
2018-08-31T15:28:08.423Z,100825.88
2018-08-31T15:30:36.289Z,100822.44
2018-08-31T15:33:04.260Z,100821.95
2018-08-31T15:35:32.186Z,100819.73
2018-08-31T15:37:59.963Z,100828.20
2018-08-31T15:40:27.823Z,100831.78
2018-08-31T15:42:55.627Z,100830.48
2018-08-31T15:45:23.457Z,100826.80
2018-08-31T15:47:51.275Z,100825.27
2018-08-31T15:50:20.975Z,100819.08
2018-08-31T15:52:48.726Z,100823.86
2018-08-31T15:55:16.576Z,100827.13
2018-08-31T15:57:44.367Z,100825.89
2018-08-31T16:00:12.195Z,100826.33
2018-08-31T16:02:40.619Z,100834.30
2018-08-31T16:05:08.935Z,100832.78
2018-08-31T16:07:37.539Z,100834.47
2018-08-31T16:10:05.919Z,100838.16
2018-08-31T16:12:33.794Z,100836.36
2018-08-31T16:15:01.616Z,100844.22
2018-08-31T16:17:29.477Z,100838.73
2018-08-31T16:19:57.299Z,100841.14
2018-08-31T16:22:25.067Z,100839.31
2018-08-31T16:24:53.087Z,100843.40
2018-08-31T16:27:20.967Z,100841.97
2018-08-31T16:29:49.035Z,100839.53
2018-08-31T16:32:16.835Z,100834.23
2018-08-31T16:34:44.674Z,100837.34
2018-08-31T16:37:12.424Z,100842.97
2018-08-31T16:39:40.288Z,100837.06
2018-08-31T16:42:20.065Z,100839.46
2018-08-31T16:44:53.975Z,100842.61
2018-08-31T16:47:21.726Z,100841.53
2018-08-31T16:49:49.532Z,100848.05
2018-08-31T16:52:17.295Z,100843.86
2018-08-31T16:54:45.064Z,100842.42
2018-08-31T16:57:12.783Z,100849.11
2018-08-31T16:59:40.600Z,100846.20
2018-08-31T17:02:08.634Z,100854.20
2018-08-31T17:04:36.475Z,100856.64
2018-08-31T17:07:04.363Z,100853.72
2018-08-31T17:09:32.179Z,100856.66
2018-08-31T17:11:59.956Z,100862.48
2018-08-31T17:14:27.745Z,100864.91
2018-08-31T17:16:55.574Z,100866.16
2018-08-31T17:19:23.333Z,100861.55
2018-08-31T17:21:51.202Z,100865.58
2018-08-31T17:24:19.212Z,100867.17
2018-08-31T17:26:52.706Z,100868.95
2018-08-31T17:29:26.283Z,100866.68
2018-08-31T17:31:59.935Z,100869.08
2018-08-31T17:34:33.765Z,100876.12
2018-08-31T17:37:07.203Z,100876.75
2018-08-31T17:39:35.011Z,100880.42
2018-08-31T17:42:03.112Z,100882.69
2018-08-31T17:44:30.897Z,100884.73
2018-08-31T17:46:59.052Z,100891.77
2018-08-31T17:49:27.330Z,100887.70
2018-08-31T17:51:55.449Z,100897.44
2018-08-31T17:54:23.243Z,100901.47
2018-08-31T17:56:51.381Z,100903.17
2018-08-31T17:59:19.219Z,100902.90
2018-08-31T18:01:47.072Z,100904.66
2018-08-31T18:04:15.443Z,100907.80
2018-08-31T18:06:43.535Z,100908.45
2018-08-31T18:09:11.339Z,100914.15
2018-08-31T18:11:39.150Z,100922.22
2018-08-31T18:14:06.956Z,100919.56
2018-08-31T18:16:34.811Z,100920.13
2018-08-31T18:19:02.611Z,100921.63
2018-08-31T18:21:30.379Z,100924.78
2018-08-31T18:23:59.944Z,100930.83
2018-08-31T18:26:28.147Z,100933.22
2018-08-31T18:28:56.371Z,100931.79
2018-08-31T18:31:24.166Z,100939.09
2018-08-31T18:33:53.244Z,100943.03
2018-08-31T18:36:24.652Z,100946.39
2018-08-31T18:38:52.454Z,100949.78
2018-08-31T18:41:20.900Z,100956.45
2018-08-31T18:43:52.488Z,100959.78
2018-08-31T18:46:20.696Z,100965.39
2018-08-31T18:48:49.058Z,100964.02
2018-08-31T18:51:16.952Z,100965.43
2018-08-31T18:53:44.843Z,100972.42
2018-08-31T18:56:13.278Z,100977.98
2018-08-31T18:58:41.419Z,100977.73
2018-08-31T19:01:09.639Z,100979.97
2018-08-31T19:03:37.978Z,100982.76
2018-08-31T19:06:05.916Z,100977.81
2018-08-31T19:08:36.602Z,100988.64
2018-08-31T19:11:04.545Z,100988.94
2018-08-31T19:13:32.261Z,100989.77
2018-08-31T19:16:00.104Z,100989.52
2018-08-31T19:18:28.615Z,101007.28
2018-08-31T19:20:56.559Z,101004.75
2018-08-31T19:23:24.595Z,101003.37
2018-08-31T19:25:52.535Z,101006.72
2018-08-31T19:28:20.315Z,101010.88
2018-08-31T19:30:48.142Z,101012.82
2018-08-31T19:33:16.099Z,101018.62
2018-08-31T19:35:43.940Z,101017.25
2018-08-31T19:38:12.006Z,101020.03
2018-08-31T19:40:39.854Z,101023.63
2018-08-31T19:43:07.720Z,101021.70
2018-08-31T19:45:35.537Z,101024.98
2018-08-31T19:48:03.395Z,101024.70
2018-08-31T19:50:31.740Z,101028.26
2018-08-31T19:52:59.566Z,101029.05
2018-08-31T19:55:27.425Z,101029.87
2018-08-31T19:57:58.286Z,101030.39
2018-08-31T20:00:26.096Z,101043.63
2018-08-31T20:02:54.026Z,101048.59
2018-08-31T20:05:22.666Z,101046.39
2018-08-31T20:07:51.213Z,101044.64
2018-08-31T20:10:19.063Z,101047.61
2018-08-31T20:12:47.385Z,101051.48
2018-08-31T20:15:15.446Z,101045.05
2018-08-31T20:17:43.243Z,101054.67
2018-08-31T20:20:11.891Z,101055.19
2018-08-31T20:22:39.604Z,101055.97
2018-08-31T20:25:07.517Z,101056.44
2018-08-31T20:27:35.608Z,101058.09
2018-08-31T20:30:03.596Z,101065.77
2018-08-31T20:32:31.455Z,101064.56
2018-08-31T20:34:59.229Z,101064.84
2018-08-31T20:37:27.015Z,101068.88
2018-08-31T20:39:55.615Z,101070.27
2018-08-31T20:42:23.699Z,101080.95
2018-08-31T20:44:51.476Z,101079.23
2018-08-31T20:47:19.351Z,101082.33
2018-08-31T20:49:47.195Z,101079.11
2018-08-31T20:52:15.498Z,101084.64
2018-08-31T20:54:43.270Z,101090.41
2018-08-31T20:57:11.124Z,101088.16
2018-08-31T20:59:38.927Z,101079.84
2018-08-31T21:02:06.707Z,101086.70
2018-08-31T21:04:34.491Z,101085.02
2018-08-31T21:07:02.242Z,101092.91
2018-08-31T21:09:30.024Z,101092.91
2018-08-31T21:11:58.026Z,101098.47
2018-08-31T21:14:25.985Z,101097.59
2018-08-31T21:16:53.815Z,101098.03
2018-08-31T21:19:21.622Z,101105.78
2018-08-31T21:21:49.474Z,101097.50
2018-08-31T21:24:17.291Z,101102.07
2018-08-31T21:26:45.140Z,101102.27
2018-08-31T21:29:12.957Z,101098.58
2018-08-31T21:31:40.756Z,101105.76
2018-08-31T21:34:08.796Z,101099.62
2018-08-31T21:36:36.639Z,101104.28
2018-08-31T21:39:06.347Z,101107.53
2018-08-31T21:41:34.174Z,101101.44
2018-08-31T21:44:02.034Z,101100.69
2018-08-31T21:46:29.852Z,101110.06
2018-08-31T21:48:57.631Z,101099.52
2018-08-31T21:51:25.463Z,101109.13
2018-08-31T21:53:54.674Z,101107.39
2018-08-31T21:56:22.479Z,101108.89
2018-08-31T21:58:50.327Z,101109.89
2018-08-31T22:01:40.144Z,101101.63
2018-08-31T22:04:09.452Z,101108.09
2018-08-31T22:06:37.820Z,101108.09
2018-08-31T22:09:07.424Z,101106.05
2018-08-31T22:11:35.267Z,101111.47
2018-08-31T22:14:03.102Z,101121.59
2018-08-31T22:16:30.862Z,101115.22
2018-08-31T22:18:58.651Z,101110.16
2018-08-31T22:21:26.500Z,101112.31
2018-08-31T22:23:54.259Z,101116.31
2018-08-31T22:26:22.084Z,101116.22
2018-08-31T22:28:49.815Z,101116.47
2018-08-31T22:31:17.636Z,101111.67
2018-08-31T22:33:45.501Z,101116.03
2018-08-31T22:36:13.319Z,101114.64
2018-08-31T22:38:41.162Z,101108.56
2018-08-31T22:41:09.019Z,101107.73
2018-08-31T22:43:42.281Z,101110.35
2018-08-31T22:46:10.143Z,101109.77
2018-08-31T22:48:37.980Z,101110.47
2018-08-31T22:51:05.821Z,101110.37
2018-08-31T22:53:33.651Z,101111.20
2018-08-31T22:56:01.447Z,101112.54
2018-08-31T22:58:29.383Z,101116.13
2018-08-31T23:00:57.204Z,101117.29
2018-08-31T23:03:25.034Z,101120.30
2018-08-31T23:05:53.019Z,101118.66
2018-08-31T23:08:20.840Z,101117.25
2018-08-31T23:10:48.661Z,101118.41
2018-08-31T23:13:16.489Z,101112.91
2018-08-31T23:15:44.166Z,101116.27
2018-08-31T23:18:11.992Z,101119.75
2018-08-31T23:20:39.806Z,101114.11
2018-08-31T23:23:13.311Z,101114.16
2018-08-31T23:25:46.846Z,101116.91
2018-08-31T23:28:14.562Z,101108.37
2018-08-31T23:30:42.471Z,101107.93
2018-08-31T23:33:10.371Z,101112.69
2018-08-31T23:35:38.187Z,101112.36
2018-08-31T23:38:11.715Z,101114.53
2018-08-31T23:40:39.799Z,101108.50
2018-08-31T23:43:08.467Z,101111.50
2018-08-31T23:45:36.523Z,101113.22
2018-08-31T23:48:04.432Z,101109.93
2018-08-31T23:50:32.207Z,101114.67
2018-08-31T23:53:00.052Z,101118.55
2018-08-31T23:55:28.147Z,101125.12
2018-08-31T23:57:56.000Z,101118.37
